Terminal Aerodrome Forecast
Issued by NWS Wilmington, OH

Home | Current Version | Previous Version | Text Only | Print | Product List | Glossary On
Versions: 1 2 3 4 5 6 7 8 9 10 11 12 13 14 15 16 17 18 19 20 21 22 23 24 25 26 27 28 29 30 31
514
FTUS41 KILN 292334
TAFILN
TAF
KILN 292334Z 3000/3024 24005KT P6SM -RA SCT045 BKN100
     FM300200 VRB04KT P6SM SCT120
     FM300800 00000KT 3SM BR SCT002
      TEMPO 3009/3013 1SM BR BKN002
     FM301400 24006KT P6SM FEW008 SCT050=

USA.gov is the U.S. government's official web portal to all federal, state and local government web resources and services.